Time;durP1;ratioP1;P1;durP2;ratioP2;P2;SDS_P1;SDS_P2;PMS_P1;PMS_P2;Temp;Humidity;BMP_temperature;BMP_pressure;BME280_temperature;BME280_humidity;BME280_pressure;Samples;Min_cycle;Max_cycle;Signal;HPM_P1;HPM_P2
2021/09/21 00:00:25;;;;;;;34.38;14.93;;;;;;;;;;4979310;28;20034;-58
2021/09/21 00:02:51;;;;;;;33.92;14.25;;;;;;;;;;5041163;28;20112;-59
2021/09/21 00:05:16;;;;;;;35.55;14.32;;;;;;;;;;4993421;28;20476;-58
2021/09/21 00:07:42;;;;;;;39.85;16.15;;;;;;;;;;4990909;28;20043;-58
2021/09/21 00:10:08;;;;;;;38.20;15.40;;;;;;;;;;5005236;28;20098;-58
2021/09/21 00:12:34;;;;;;;40.75;15.07;;;;;;;;;;5009826;28;20114;-58
2021/09/21 00:15:00;;;;;;;40.28;16.40;;;;;;;;;;4984865;28;20117;-58
2021/09/21 00:17:26;;;;;;;40.40;16.17;;;;;;;;;;5044862;28;20072;-58
2021/09/21 00:19:51;;;;;;;38.10;14.98;;;;;;;;;;4988615;28;20058;-58
2021/09/21 00:22:17;;;;;;;37.45;15.32;;;;;;;;;;4985832;28;20031;-59
2021/09/21 00:24:42;;;;;;;42.58;16.73;;;;;;;;;;4990997;28;20019;-58
2021/09/21 00:27:07;;;;;;;43.28;17.25;;;;;;;;;;5014407;28;20089;-57
2021/09/21 00:29:33;;;;;;;40.00;15.93;;;;;;;;;;4991829;28;20390;-59
2021/09/21 00:32:00;;;;;;;42.47;16.77;;;;;;;;;;4995475;28;20110;-59
2021/09/21 00:34:38;;;;;;;38.45;15.80;;;;;;;;;;5001026;28;20032;-58
2021/09/21 00:37:09;;;;;;;39.20;15.63;;;;;;;;;;4998313;28;20027;-58
2021/09/21 00:39:34;;;;;;;37.05;15.13;;;;;;;;;;4981269;28;20042;-58
2021/09/21 00:42:00;;;;;;;36.95;14.93;;;;;;;;;;4997203;28;20038;-58
2021/09/21 00:44:25;;;;;;;34.03;14.32;;;;;;;;;;5000323;28;20101;-59
2021/09/21 00:46:51;;;;;;;33.55;15.02;;;;;;;;;;5051392;28;20054;-58
2021/09/21 00:49:17;;;;;;;29.00;14.65;;;;;;;;;;4993074;28;20030;-58
2021/09/21 00:51:43;;;;;;;30.25;13.40;;;;;;;;;;5008268;28;20035;-58
2021/09/21 00:54:08;;;;;;;31.45;14.32;;;;;;;;;;4989665;28;20471;-58
2021/09/21 00:56:35;;;;;;;29.08;14.18;;;;;;;;;;4994505;28;20046;-58
2021/09/21 00:59:00;;;;;;;31.58;14.98;;;;;;;;;;5014852;28;20431;-58
2021/09/21 01:01:26;;;;;;;28.45;14.13;;;;;;;;;;4995971;28;20038;-58
2021/09/21 01:03:51;;;;;;;29.63;15.15;;;;;;;;;;4999843;28;20122;-58
2021/09/21 01:06:16;;;;;;;30.40;14.70;;;;;;;;;;5010244;28;20083;-58
2021/09/21 01:08:42;;;;;;;33.78;14.93;;;;;;;;;;4988973;28;20077;-58
2021/09/21 01:11:10;;;;;;;27.38;14.18;;;;;;;;;;4983298;28;20391;-58
2021/09/21 01:13:36;;;;;;;28.40;13.48;;;;;;;;;;5052922;28;20114;-59
2021/09/21 01:16:02;;;;;;;27.05;13.75;;;;;;;;;;5010785;28;20076;-58
2021/09/21 01:18:27;;;;;;;30.27;14.88;;;;;;;;;;5057574;28;20032;-58
2021/09/21 01:21:03;;;;;;;31.35;14.02;;;;;;;;;;5006083;28;20043;-58
2021/09/21 01:23:30;;;;;;;27.95;14.23;;;;;;;;;;5011930;28;20034;-58
2021/09/21 01:25:56;;;;;;;22.67;12.57;;;;;;;;;;4984209;28;20091;-58
2021/09/21 01:28:21;;;;;;;27.30;13.57;;;;;;;;;;4994047;28;20050;-58
2021/09/21 01:30:47;;;;;;;30.75;15.02;;;;;;;;;;5054781;28;20026;-58
2021/09/21 01:33:20;;;;;;;31.23;14.75;;;;;;;;;;4994596;28;20049;-58
2021/09/21 01:35:46;;;;;;;26.25;12.65;;;;;;;;;;5015970;28;20107;-58
2021/09/21 01:38:11;;;;;;;26.20;13.52;;;;;;;;;;4991248;28;20118;-58
2021/09/21 01:40:37;;;;;;;27.98;13.68;;;;;;;;;;4991125;28;20034;-58
2021/09/21 01:43:02;;;;;;;29.88;14.15;;;;;;;;;;4981291;28;20022;-58
2021/09/21 01:45:28;;;;;;;25.80;13.95;;;;;;;;;;4997350;28;20026;-58
2021/09/21 01:47:53;;;;;;;27.35;13.25;;;;;;;;;;5054520;28;20031;-58
2021/09/21 01:50:23;;;;;;;30.02;13.77;;;;;;;;;;5014517;28;20203;-58
2021/09/21 01:52:56;;;;;;;29.48;14.52;;;;;;;;;;4984217;28;20034;-58
2021/09/21 02:00:58;;;;;;;28.52;14.05;;;;;;;;;;4999897;28;20050;-58
2021/09/21 02:03:23;;;;;;;30.17;14.73;;;;;;;;;;4990234;28;20076;-58
2021/09/21 02:05:48;;;;;;;30.90;14.65;;;;;;;;;;4996554;28;20393;-58
2021/09/21 02:08:14;;;;;;;31.17;14.43;;;;;;;;;;5060485;28;20026;-61
2021/09/21 02:10:39;;;;;;;29.80;14.77;;;;;;;;;;5048336;28;20045;-58
2021/09/21 02:13:05;;;;;;;30.15;13.98;;;;;;;;;;5016921;28;20324;-58
2021/09/21 02:15:31;;;;;;;25.70;13.30;;;;;;;;;;5004022;28;20105;-58
2021/09/21 02:17:59;;;;;;;29.40;14.60;;;;;;;;;;4978842;28;20109;-58
2021/09/21 02:20:28;;;;;;;31.30;14.15;;;;;;;;;;5004695;28;20020;-58
2021/09/21 02:22:54;;;;;;;29.45;14.15;;;;;;;;;;5004002;28;20026;-58
2021/09/21 02:25:20;;;;;;;34.00;16.95;;;;;;;;;;4981678;28;20038;-58
2021/09/21 02:27:45;;;;;;;31.60;15.13;;;;;;;;;;4985137;28;20435;-59
2021/09/21 02:30:11;;;;;;;30.67;15.02;;;;;;;;;;5000743;28;20018;-58
2021/09/21 02:32:37;;;;;;;34.47;16.42;;;;;;;;;;4988887;28;20026;-59
2021/09/21 02:35:03;;;;;;;30.95;15.13;;;;;;;;;;4988690;28;20023;-59
2021/09/21 02:37:29;;;;;;;30.58;14.68;;;;;;;;;;5048154;28;20049;-58
2021/09/21 02:39:54;;;;;;;28.80;14.52;;;;;;;;;;5002144;28;20498;-58
2021/09/21 02:42:20;;;;;;;31.15;15.73;;;;;;;;;;4993094;28;20022;-58
2021/09/21 02:44:46;;;;;;;33.03;15.25;;;;;;;;;;4987797;28;20434;-58
2021/09/21 02:47:11;;;;;;;30.70;14.27;;;;;;;;;;5049209;28;20087;-59
2021/09/21 02:49:38;;;;;;;29.27;14.07;;;;;;;;;;4998156;28;20027;-59
2021/09/21 02:52:03;;;;;;;31.42;14.80;;;;;;;;;;4990604;28;20040;-58
2021/09/21 02:54:29;;;;;;;29.08;14.10;;;;;;;;;;4993835;28;20045;-58
2021/09/21 02:56:54;;;;;;;32.50;14.02;;;;;;;;;;5045857;28;20031;-59
2021/09/21 02:59:20;;;;;;;29.92;14.20;;;;;;;;;;4996663;28;20026;-58
2021/09/21 03:01:45;;;;;;;31.10;14.93;;;;;;;;;;4995292;28;20038;-59
2021/09/21 03:04:23;;;;;;;33.97;14.52;;;;;;;;;;4979068;28;20022;-58
2021/09/21 03:06:51;;;;;;;35.25;15.30;;;;;;;;;;4997433;28;20016;-58
2021/09/21 03:12:59;;;;;;;31.73;15.65;;;;;;;;;;4987736;28;20177;-59
2021/09/21 03:17:31;;;;;;;30.65;15.27;;;;;;;;;;4982197;28;20084;-58
2021/09/21 03:20:01;;;;;;;31.58;15.23;;;;;;;;;;4994001;28;20431;-58
2021/09/21 03:22:28;;;;;;;31.92;13.95;;;;;;;;;;4997654;28;20038;-58
2021/09/21 03:24:54;;;;;;;28.63;14.40;;;;;;;;;;4983256;28;20121;-58
2021/09/21 03:27:20;;;;;;;34.33;15.38;;;;;;;;;;4987645;28;20035;-58
2021/09/21 03:29:46;;;;;;;31.13;14.38;;;;;;;;;;4995738;28;20038;-59
2021/09/21 03:32:12;;;;;;;29.20;14.10;;;;;;;;;;5006745;28;20473;-58
2021/09/21 03:34:38;;;;;;;32.72;15.40;;;;;;;;;;4987726;28;20042;-58
2021/09/21 03:37:08;;;;;;;31.27;14.95;;;;;;;;;;4996777;28;20030;-58
2021/09/21 03:39:34;;;;;;;33.38;15.10;;;;;;;;;;4993207;28;20523;-58
2021/09/21 03:41:59;;;;;;;32.05;13.77;;;;;;;;;;4988070;28;20382;-58
2021/09/21 03:44:26;;;;;;;29.95;14.52;;;;;;;;;;4995136;28;20468;-58
2021/09/21 03:46:52;;;;;;;28.55;13.75;;;;;;;;;;4994798;28;20221;-58
2021/09/21 03:49:18;;;;;;;29.08;14.32;;;;;;;;;;4979120;28;20034;-58
2021/09/21 03:51:43;;;;;;;33.30;15.20;;;;;;;;;;5009576;28;20451;-58
2021/09/21 03:54:09;;;;;;;30.70;15.07;;;;;;;;;;4994866;28;20033;-58
2021/09/21 03:56:36;;;;;;;30.42;15.23;;;;;;;;;;4996126;28;20029;-58
2021/09/21 03:59:03;;;;;;;29.55;13.40;;;;;;;;;;4981873;28;20091;-58
2021/09/21 04:01:28;;;;;;;26.35;13.00;;;;;;;;;;5005497;28;20341;-58
2021/09/21 04:03:54;;;;;;;29.95;14.52;;;;;;;;;;5061231;28;20028;-58
2021/09/21 04:06:19;;;;;;;28.67;13.80;;;;;;;;;;5001377;28;20496;-58
2021/09/21 04:08:45;;;;;;;27.88;13.20;;;;;;;;;;5003456;28;20022;-58
2021/09/21 04:11:10;;;;;;;31.67;14.20;;;;;;;;;;4984187;28;20034;-58
2021/09/21 04:13:36;;;;;;;31.13;14.38;;;;;;;;;;4982868;28;20508;-59
2021/09/21 04:16:02;;;;;;;27.80;14.13;;;;;;;;;;4992893;28;20042;-58
2021/09/21 04:18:27;;;;;;;26.77;13.25;;;;;;;;;;4989716;28;20041;-59
2021/09/21 04:20:53;;;;;;;30.55;15.32;;;;;;;;;;4996989;28;20321;-58
2021/09/21 04:23:18;;;;;;;27.17;13.13;;;;;;;;;;4994196;28;20528;-58
2021/09/21 04:25:44;;;;;;;28.17;13.73;;;;;;;;;;4994911;28;20030;-58
2021/09/21 04:28:09;;;;;;;34.67;15.68;;;;;;;;;;4994540;28;20057;-58
2021/09/21 04:30:34;;;;;;;29.48;14.45;;;;;;;;;;4996400;28;20035;-58
2021/09/21 04:33:00;;;;;;;31.70;15.25;;;;;;;;;;5002051;28;20037;-59
2021/09/21 04:35:25;;;;;;;29.88;13.90;;;;;;;;;;5015095;28;20043;-60
2021/09/21 04:37:51;;;;;;;33.58;15.38;;;;;;;;;;4994156;28;20214;-59
2021/09/21 04:40:16;;;;;;;32.67;13.70;;;;;;;;;;5000051;28;20038;-59
2021/09/21 04:42:42;;;;;;;31.27;15.35;;;;;;;;;;4984859;28;20039;-59
2021/09/21 04:45:08;;;;;;;30.65;14.90;;;;;;;;;;4983553;28;20026;-59
2021/09/21 04:47:33;;;;;;;25.48;13.70;;;;;;;;;;4991907;28;20032;-59
2021/09/21 04:49:58;;;;;;;32.40;15.40;;;;;;;;;;4992816;28;20570;-59
2021/09/21 04:52:24;;;;;;;31.73;14.85;;;;;;;;;;4999165;28;20436;-60
2021/09/21 04:54:49;;;;;;;28.23;14.13;;;;;;;;;;5022604;28;20073;-60
2021/09/21 04:57:15;;;;;;;29.83;14.95;;;;;;;;;;5008877;28;20459;-59
2021/09/21 04:59:40;;;;;;;28.25;14.30;;;;;;;;;;4986520;28;20208;-59
2021/09/21 05:02:06;;;;;;;29.23;14.35;;;;;;;;;;4992116;28;20333;-59
2021/09/21 05:04:31;;;;;;;31.15;14.90;;;;;;;;;;5015616;28;20035;-59
2021/09/21 05:06:56;;;;;;;26.95;13.18;;;;;;;;;;4985367;28;20036;-59
2021/09/21 05:09:22;;;;;;;29.35;14.75;;;;;;;;;;4995348;28;20111;-59
2021/09/21 05:11:47;;;;;;;24.25;13.30;;;;;;;;;;4997531;28;20045;-59
2021/09/21 05:14:13;;;;;;;31.20;14.85;;;;;;;;;;4993026;28;20037;-59
2021/09/21 05:16:40;;;;;;;33.95;14.65;;;;;;;;;;4995417;28;20072;-59
2021/09/21 05:19:08;;;;;;;27.65;13.63;;;;;;;;;;4988976;28;20717;-59
2021/09/21 05:21:34;;;;;;;29.23;15.05;;;;;;;;;;4988446;28;20030;-59
2021/09/21 05:24:00;;;;;;;35.80;15.00;;;;;;;;;;4999257;28;20481;-59
2021/09/21 05:26:25;;;;;;;32.38;15.30;;;;;;;;;;4995980;28;20043;-59
2021/09/21 05:28:51;;;;;;;36.95;16.58;;;;;;;;;;5017369;28;20340;-59
2021/09/21 05:31:16;;;;;;;30.80;15.90;;;;;;;;;;5006012;28;20156;-59
2021/09/21 05:33:42;;;;;;;31.00;14.18;;;;;;;;;;4985589;28;20045;-59
2021/09/21 05:36:07;;;;;;;35.78;16.80;;;;;;;;;;5009968;28;20484;-59
2021/09/21 05:38:33;;;;;;;32.45;16.23;;;;;;;;;;4980475;28;20034;-58
2021/09/21 05:40:58;;;;;;;31.67;15.30;;;;;;;;;;4995617;28;20034;-58
2021/09/21 05:43:24;;;;;;;32.67;15.65;;;;;;;;;;4989026;28;20136;-59
2021/09/21 05:45:49;;;;;;;37.50;16.27;;;;;;;;;;4992618;28;20107;-58
2021/09/21 05:48:15;;;;;;;28.98;14.95;;;;;;;;;;5007115;28;20126;-59
2021/09/21 05:50:40;;;;;;;31.13;15.50;;;;;;;;;;5011352;28;20049;-58
2021/09/21 05:53:05;;;;;;;35.95;16.83;;;;;;;;;;4989583;28;20195;-59
2021/09/21 05:55:31;;;;;;;33.50;16.48;;;;;;;;;;4995594;28;20050;-59
2021/09/21 05:57:57;;;;;;;37.88;18.25;;;;;;;;;;4982336;28;20034;-59
2021/09/21 06:00:22;;;;;;;33.97;16.95;;;;;;;;;;4998864;28;20034;-58
2021/09/21 06:02:48;;;;;;;30.30;15.98;;;;;;;;;;5060419;28;20522;-59
2021/09/21 06:05:13;;;;;;;37.17;16.27;;;;;;;;;;4984837;28;20032;-59
2021/09/21 06:07:49;;;;;;;31.58;16.25;;;;;;;;;;4992441;28;20030;-59
2021/09/21 06:10:19;;;;;;;28.50;14.80;;;;;;;;;;4981619;28;20144;-58
2021/09/21 06:12:45;;;;;;;29.58;15.15;;;;;;;;;;4993302;28;20030;-58
2021/09/21 06:15:11;;;;;;;30.80;15.23;;;;;;;;;;4995882;28;20033;-58
2021/09/21 06:17:37;;;;;;;33.10;16.52;;;;;;;;;;4997697;28;20031;-59
2021/09/21 06:20:05;;;;;;;32.53;15.65;;;;;;;;;;4990303;28;20106;-58
2021/09/21 06:22:30;;;;;;;35.70;15.65;;;;;;;;;;4988949;28;20046;-58
2021/09/21 06:24:56;;;;;;;32.50;15.32;;;;;;;;;;4998448;28;20374;-57
2021/09/21 06:27:21;;;;;;;30.45;15.55;;;;;;;;;;4995111;28;20022;-57
2021/09/21 06:29:47;;;;;;;25.65;14.00;;;;;;;;;;4984832;28;20118;-57
2021/09/21 06:32:12;;;;;;;27.42;15.38;;;;;;;;;;4998388;28;20460;-58
2021/09/21 06:34:37;;;;;;;30.02;14.63;;;;;;;;;;5010901;28;20045;-58
2021/09/21 06:37:03;;;;;;;34.58;16.50;;;;;;;;;;4985932;28;20159;-58
2021/09/21 06:39:29;;;;;;;29.80;15.75;;;;;;;;;;5047149;28;20121;-58
2021/09/21 06:41:54;;;;;;;31.48;15.43;;;;;;;;;;4984442;28;20037;-58
2021/09/21 06:44:20;;;;;;;26.85;14.55;;;;;;;;;;4998160;28;20660;-57
2021/09/21 06:46:45;;;;;;;34.90;15.63;;;;;;;;;;5043136;28;20062;-58
2021/09/21 06:49:10;;;;;;;29.73;15.05;;;;;;;;;;4989260;28;20216;-58
2021/09/21 06:51:36;;;;;;;30.33;16.17;;;;;;;;;;5045956;28;20099;-58
2021/09/21 06:54:01;;;;;;;31.25;16.10;;;;;;;;;;5041832;28;20031;-57
2021/09/21 06:56:30;;;;;;;32.10;14.88;;;;;;;;;;5047517;28;20038;-59
2021/09/21 06:58:56;;;;;;;28.90;14.82;;;;;;;;;;4993710;28;20029;-57
2021/09/21 07:01:23;;;;;;;29.65;14.80;;;;;;;;;;4987706;28;20384;-58
2021/09/21 07:03:48;;;;;;;32.10;15.90;;;;;;;;;;5008883;28;20016;-58
2021/09/21 07:06:14;;;;;;;31.38;15.20;;;;;;;;;;5051542;28;20034;-58
2021/09/21 07:08:39;;;;;;;32.88;15.15;;;;;;;;;;4983342;28;20431;-58
2021/09/21 07:11:05;;;;;;;27.70;15.07;;;;;;;;;;4988535;28;20241;-58
2021/09/21 07:13:30;;;;;;;31.77;15.15;;;;;;;;;;5046368;28;20155;-58
2021/09/21 07:15:56;;;;;;;28.70;14.27;;;;;;;;;;5042138;28;20088;-58
2021/09/21 07:18:21;;;;;;;27.25;13.63;;;;;;;;;;4986427;28;20068;-57
2021/09/21 07:20:46;;;;;;;30.95;14.43;;;;;;;;;;5046905;28;20060;-58
2021/09/21 07:23:12;;;;;;;28.50;14.57;;;;;;;;;;4995177;28;20419;-58
2021/09/21 07:25:37;;;;;;;31.38;14.63;;;;;;;;;;4979243;28;20035;-58
2021/09/21 07:28:03;;;;;;;26.90;13.23;;;;;;;;;;4992430;28;20349;-57
2021/09/21 07:30:32;;;;;;;21.48;11.25;;;;;;;;;;4996171;28;20102;-58
2021/09/21 07:32:58;;;;;;;27.83;12.70;;;;;;;;;;5050621;28;20341;-58
2021/09/21 07:35:24;;;;;;;21.98;12.05;;;;;;;;;;4995541;28;20058;-57
2021/09/21 07:37:50;;;;;;;24.52;12.15;;;;;;;;;;4972673;28;20111;-58
2021/09/21 07:40:19;;;;;;;22.98;11.75;;;;;;;;;;4999749;28;20068;-58
2021/09/21 07:42:44;;;;;;;22.13;11.50;;;;;;;;;;5016747;28;20034;-58
2021/09/21 07:45:11;;;;;;;24.35;12.30;;;;;;;;;;4977130;28;20455;-58
2021/09/21 07:47:36;;;;;;;23.05;11.50;;;;;;;;;;4991698;28;20092;-58
2021/09/21 07:50:03;;;;;;;22.48;11.30;;;;;;;;;;4993499;28;20409;-57
2021/09/21 07:52:28;;;;;;;21.95;11.90;;;;;;;;;;5006818;28;20174;-60
2021/09/21 07:54:54;;;;;;;27.40;11.82;;;;;;;;;;4972025;28;20137;-57
2021/09/21 07:57:19;;;;;;;20.10;10.68;;;;;;;;;;4981452;28;20031;-57
2021/09/21 07:59:45;;;;;;;24.20;12.40;;;;;;;;;;4994107;28;20034;-58
2021/09/21 08:02:11;;;;;;;22.88;12.48;;;;;;;;;;4990700;28;20484;-58
2021/09/21 08:04:39;;;;;;;22.77;12.63;;;;;;;;;;4988424;28;20022;-59
2021/09/21 08:07:05;;;;;;;20.25;11.35;;;;;;;;;;4995695;28;20114;-58
2021/09/21 08:09:31;;;;;;;19.02;10.48;;;;;;;;;;5025620;28;20079;-58
2021/09/21 08:11:57;;;;;;;18.00;10.35;;;;;;;;;;4989800;28;20443;-58
2021/09/21 08:14:22;;;;;;;18.63;11.32;;;;;;;;;;4985937;28;20067;-58
2021/09/21 08:16:48;;;;;;;19.55;10.88;;;;;;;;;;4991192;28;20167;-58
2021/09/21 08:19:13;;;;;;;24.83;10.85;;;;;;;;;;4990280;28;20022;-58
2021/09/21 08:21:38;;;;;;;18.80;10.52;;;;;;;;;;5043852;28;20054;-59
2021/09/21 08:24:05;;;;;;;17.58;10.02;;;;;;;;;;5047152;28;20034;-58
2021/09/21 08:26:31;;;;;;;22.75;10.98;;;;;;;;;;5005981;28;20139;-58
2021/09/21 08:28:56;;;;;;;22.15;10.68;;;;;;;;;;4982697;28;20484;-58
2021/09/21 08:31:22;;;;;;;20.42;10.23;;;;;;;;;;4989858;28;20069;-59
2021/09/21 08:33:47;;;;;;;17.48;9.95;;;;;;;;;;4995027;28;20436;-59
2021/09/21 08:36:13;;;;;;;17.83;9.57;;;;;;;;;;5056553;28;20030;-58
2021/09/21 08:38:38;;;;;;;15.65;9.70;;;;;;;;;;4990896;28;20035;-58
2021/09/21 08:41:04;;;;;;;17.17;9.77;;;;;;;;;;5048829;28;20022;-58
2021/09/21 08:43:29;;;;;;;16.73;9.98;;;;;;;;;;5046766;28;20131;-59
2021/09/21 08:45:55;;;;;;;22.25;10.68;;;;;;;;;;4980362;28;20042;-58
2021/09/21 08:48:21;;;;;;;18.65;10.80;;;;;;;;;;4989381;28;20033;-58
2021/09/21 08:50:47;;;;;;;19.60;10.15;;;;;;;;;;4995594;28;20114;-58
2021/09/21 08:53:12;;;;;;;21.70;9.55;;;;;;;;;;5047666;28;20030;-58
2021/09/21 08:55:38;;;;;;;17.77;9.90;;;;;;;;;;5025256;28;20034;-59
2021/09/21 08:58:04;;;;;;;18.60;9.68;;;;;;;;;;4990895;28;20136;-58
2021/09/21 09:00:33;;;;;;;16.75;9.45;;;;;;;;;;5009475;28;20027;-58
2021/09/21 09:03:07;;;;;;;16.73;9.20;;;;;;;;;;5055522;28;20080;-58
2021/09/21 09:05:49;;;;;;;15.15;9.18;;;;;;;;;;5011090;28;20034;-58
2021/09/21 09:08:26;;;;;;;21.60;10.10;;;;;;;;;;5001159;28;20024;-58
2021/09/21 09:10:52;;;;;;;26.20;9.40;;;;;;;;;;5007112;28;20622;-58
2021/09/21 09:13:18;;;;;;;14.85;9.52;;;;;;;;;;5008443;28;20039;-58
2021/09/21 09:15:52;;;;;;;15.93;8.93;;;;;;;;;;4975927;28;20587;-59
2021/09/21 09:18:24;;;;;;;16.15;9.38;;;;;;;;;;4987849;28;20033;-58
2021/09/21 09:20:50;;;;;;;17.17;9.65;;;;;;;;;;4980567;28;20022;-58
2021/09/21 09:23:15;;;;;;;13.68;8.70;;;;;;;;;;4995789;28;20090;-58
2021/09/21 09:25:46;;;;;;;14.50;8.40;;;;;;;;;;4997991;28;20030;-59
2021/09/21 09:28:21;;;;;;;14.20;7.90;;;;;;;;;;4995728;28;20086;-58
2021/09/21 09:30:47;;;;;;;12.93;8.82;;;;;;;;;;5007616;28;20033;-58
2021/09/21 09:33:14;;;;;;;12.88;8.20;;;;;;;;;;5048515;28;20035;-58
2021/09/21 09:35:43;;;;;;;12.27;8.15;;;;;;;;;;4988340;28;20504;-58
2021/09/21 09:38:11;;;;;;;12.65;8.13;;;;;;;;;;4982176;28;20035;-58
2021/09/21 09:40:54;;;;;;;12.00;7.57;;;;;;;;;;4998837;28;20038;-58
2021/09/21 09:43:26;;;;;;;13.18;8.60;;;;;;;;;;5000345;28;20038;-58
2021/09/21 09:45:54;;;;;;;14.15;8.35;;;;;;;;;;4990122;28;20110;-58
2021/09/21 09:48:21;;;;;;;13.15;8.50;;;;;;;;;;5033916;28;20035;-58
2021/09/21 09:50:49;;;;;;;12.85;8.32;;;;;;;;;;4992045;28;20033;-58
2021/09/21 09:53:20;;;;;;;14.25;9.40;;;;;;;;;;4988257;28;20042;-58
2021/09/21 09:55:48;;;;;;;16.08;8.82;;;;;;;;;;4987151;28;20028;-58
2021/09/21 09:58:15;;;;;;;14.00;8.80;;;;;;;;;;5041548;28;20110;-58
2021/09/21 10:00:41;;;;;;;13.95;8.73;;;;;;;;;;4988173;28;20037;-58
2021/09/21 10:03:07;;;;;;;14.95;9.93;;;;;;;;;;4989670;28;20026;-58
2021/09/21 10:05:35;;;;;;;16.25;10.18;;;;;;;;;;5048293;28;20064;-58
2021/09/21 10:08:00;;;;;;;16.92;10.77;;;;;;;;;;4976049;28;20532;-58
2021/09/21 10:10:27;;;;;;;18.58;11.27;;;;;;;;;;4986768;28;20031;-58
2021/09/21 10:12:55;;;;;;;22.77;12.13;;;;;;;;;;4993309;28;20508;-58
2021/09/21 10:15:20;;;;;;;18.98;11.32;;;;;;;;;;5006659;28;20419;-58
2021/09/21 10:17:55;;;;;;;18.63;10.73;;;;;;;;;;4990676;28;20115;-58
2021/09/21 10:20:33;;;;;;;22.08;12.63;;;;;;;;;;4989591;28;20023;-58
2021/09/21 10:22:59;;;;;;;18.30;11.63;;;;;;;;;;5012568;28;20168;-58
2021/09/21 10:25:30;;;;;;;28.65;14.80;;;;;;;;;;4997466;28;20028;-58
2021/09/21 10:27:56;;;;;;;45.42;20.80;;;;;;;;;;5008598;28;20034;-58
2021/09/21 10:30:24;;;;;;;51.63;21.73;;;;;;;;;;5023783;28;20026;-58
2021/09/21 10:32:51;;;;;;;29.60;15.20;;;;;;;;;;4991468;28;20034;-59
2021/09/21 10:35:20;;;;;;;40.67;19.95;;;;;;;;;;4982443;28;20054;-59
2021/09/21 10:38:03;;;;;;;15.65;9.70;;;;;;;;;;4985342;28;20030;-59
2021/09/21 10:40:47;;;;;;;14.30;9.95;;;;;;;;;;4996573;28;20412;-59
2021/09/21 10:43:29;;;;;;;14.45;9.60;;;;;;;;;;4989472;28;20037;-59
2021/09/21 10:46:10;;;;;;;14.55;9.73;;;;;;;;;;4995443;28;20114;-59
2021/09/21 10:48:38;;;;;;;19.48;10.35;;;;;;;;;;4987172;28;20026;-59
2021/09/21 10:51:05;;;;;;;15.13;10.02;;;;;;;;;;5000265;28;20030;-59
2021/09/21 10:53:31;;;;;;;13.95;9.68;;;;;;;;;;5005444;28;20103;-59
2021/09/21 10:56:17;;;;;;;13.07;9.45;;;;;;;;;;4983295;28;20130;-59
2021/09/21 10:58:53;;;;;;;14.43;8.85;;;;;;;;;;4979176;28;20509;-59
2021/09/21 11:01:19;;;;;;;15.45;9.32;;;;;;;;;;5049469;28;20571;-59
2021/09/21 11:03:44;;;;;;;13.07;9.32;;;;;;;;;;5004308;28;20101;-59
2021/09/21 11:06:12;;;;;;;15.35;9.32;;;;;;;;;;4980374;28;20095;-59
2021/09/21 11:08:38;;;;;;;15.75;9.38;;;;;;;;;;4987276;28;20030;-59
2021/09/21 11:11:04;;;;;;;14.65;10.10;;;;;;;;;;5045605;28;20077;-59
2021/09/21 11:13:32;;;;;;;14.48;9.13;;;;;;;;;;4985235;28;20289;-59
2021/09/21 11:16:00;;;;;;;13.23;9.25;;;;;;;;;;4991695;28;20043;-59
2021/09/21 11:18:26;;;;;;;14.70;9.75;;;;;;;;;;4999354;28;20467;-59
2021/09/21 11:20:53;;;;;;;17.60;11.07;;;;;;;;;;4995559;28;20034;-59
2021/09/21 11:23:21;;;;;;;12.93;9.18;;;;;;;;;;4984453;28;20552;-58
2021/09/21 11:25:48;;;;;;;15.87;9.67;;;;;;;;;;4982964;28;20030;-59
2021/09/21 11:28:15;;;;;;;12.02;8.45;;;;;;;;;;4990012;28;20033;-59
2021/09/21 11:30:42;;;;;;;13.50;9.15;;;;;;;;;;4987194;28;20027;-59
2021/09/21 11:33:16;;;;;;;13.25;8.82;;;;;;;;;;4989387;28;20038;-59
2021/09/21 11:35:55;;;;;;;15.60;10.02;;;;;;;;;;4998036;28;20088;-60
2021/09/21 11:38:21;;;;;;;11.50;8.70;;;;;;;;;;5048252;28;20484;-59
2021/09/21 11:40:49;;;;;;;12.65;9.40;;;;;;;;;;4987075;28;20036;-59
2021/09/21 11:43:15;;;;;;;16.35;9.27;;;;;;;;;;5007233;28;20113;-59
2021/09/21 11:45:44;;;;;;;12.70;8.65;;;;;;;;;;4993865;28;20545;-59
2021/09/21 11:48:11;;;;;;;14.57;9.40;;;;;;;;;;4981605;28;20064;-59
2021/09/21 11:50:37;;;;;;;13.55;9.43;;;;;;;;;;5042170;28;20759;-60
2021/09/21 11:53:05;;;;;;;15.52;8.98;;;;;;;;;;5007787;28;20038;-59
2021/09/21 11:55:33;;;;;;;14.63;8.50;;;;;;;;;;4989029;28;20117;-60
2021/09/21 11:58:00;;;;;;;13.80;9.73;;;;;;;;;;4982158;28;20085;-59
2021/09/21 12:00:32;;;;;;;12.80;9.10;;;;;;;;;;4996679;28;20042;-59
2021/09/21 12:03:00;;;;;;;12.73;8.93;;;;;;;;;;4991868;28;20073;-59
2021/09/21 12:05:26;;;;;;;14.23;8.80;;;;;;;;;;4992878;28;20047;-59
2021/09/21 12:07:52;;;;;;;11.90;9.18;;;;;;;;;;4999289;28;20038;-58
2021/09/21 12:10:19;;;;;;;15.68;9.10;;;;;;;;;;5058132;28;20558;-59
2021/09/21 12:12:45;;;;;;;12.68;9.07;;;;;;;;;;4981876;28;20540;-58
2021/09/21 12:15:12;;;;;;;11.57;8.25;;;;;;;;;;4992082;28;20086;-58
2021/09/21 12:17:46;;;;;;;13.63;8.95;;;;;;;;;;4996598;28;20262;-59
2021/09/21 12:20:12;;;;;;;14.38;8.82;;;;;;;;;;5050237;28;20034;-58
2021/09/21 12:22:48;;;;;;;13.93;9.63;;;;;;;;;;5048499;28;20020;-59
2021/09/21 12:25:14;;;;;;;17.10;9.45;;;;;;;;;;5011994;28;20082;-60
2021/09/21 12:27:40;;;;;;;11.50;8.32;;;;;;;;;;4990161;28;20103;-59
2021/09/21 12:30:07;;;;;;;13.43;9.52;;;;;;;;;;4982262;28;20497;-59
2021/09/21 12:32:33;;;;;;;17.35;10.45;;;;;;;;;;4994443;28;20117;-58
2021/09/21 12:35:08;;;;;;;16.55;9.38;;;;;;;;;;4986614;28;20576;-60
2021/09/21 12:37:38;;;;;;;15.32;9.45;;;;;;;;;;5005364;28;20085;-60
2021/09/21 12:40:13;;;;;;;14.88;9.70;;;;;;;;;;4984481;28;20061;-58
2021/09/21 12:42:40;;;;;;;13.23;9.20;;;;;;;;;;5046601;28;20393;-60
2021/09/21 12:45:07;;;;;;;12.50;8.57;;;;;;;;;;5050410;28;20038;-59
2021/09/21 12:47:36;;;;;;;14.27;9.27;;;;;;;;;;4993734;28;20034;-58
2021/09/21 12:50:16;;;;;;;12.60;8.52;;;;;;;;;;5062240;28;20026;-60
2021/09/21 12:52:53;;;;;;;12.55;8.02;;;;;;;;;;5058161;28;20170;-58
2021/09/21 12:55:30;;;;;;;15.63;8.93;;;;;;;;;;4988115;28;20034;-59
2021/09/21 12:57:57;;;;;;;11.65;8.93;;;;;;;;;;4981413;28;20054;-59
2021/09/21 13:00:23;;;;;;;15.15;9.60;;;;;;;;;;4992814;28;20031;-59
2021/09/21 13:02:52;;;;;;;16.13;9.98;;;;;;;;;;4989789;28;20030;-60
2021/09/21 13:05:19;;;;;;;15.93;8.85;;;;;;;;;;4982977;28;20026;-59
2021/09/21 13:07:44;;;;;;;13.95;8.27;;;;;;;;;;4983367;28;20061;-60
2021/09/21 13:10:10;;;;;;;11.82;8.68;;;;;;;;;;4988822;28;20555;-59
2021/09/21 13:12:36;;;;;;;13.23;8.65;;;;;;;;;;4997258;28;20044;-59
2021/09/21 13:15:02;;;;;;;13.50;9.55;;;;;;;;;;4987315;28;20031;-58
2021/09/21 13:17:27;;;;;;;12.63;9.18;;;;;;;;;;4998677;28;20181;-58
2021/09/21 13:19:52;;;;;;;12.32;9.20;;;;;;;;;;4996494;28;20022;-59
2021/09/21 13:22:19;;;;;;;11.35;8.00;;;;;;;;;;4993713;28;20031;-59
2021/09/21 13:24:44;;;;;;;15.40;9.88;;;;;;;;;;5002350;28;20049;-59
2021/09/21 13:27:10;;;;;;;13.73;9.20;;;;;;;;;;5002405;28;20040;-58
2021/09/21 13:29:35;;;;;;;14.27;9.63;;;;;;;;;;4980952;28;20350;-59
2021/09/21 13:32:01;;;;;;;14.93;9.30;;;;;;;;;;4980576;28;20053;-59
2021/09/21 13:34:28;;;;;;;14.90;10.15;;;;;;;;;;4991859;28;20123;-59
2021/09/21 13:36:53;;;;;;;15.90;9.90;;;;;;;;;;4977653;28;20094;-59
2021/09/21 13:39:19;;;;;;;14.30;9.70;;;;;;;;;;4991275;28;20071;-59
2021/09/21 13:41:44;;;;;;;12.48;9.38;;;;;;;;;;4990197;28;20033;-59
2021/09/21 13:44:10;;;;;;;13.32;9.00;;;;;;;;;;4990352;28;20053;-59
2021/09/21 13:46:36;;;;;;;14.10;9.80;;;;;;;;;;4991179;28;20030;-59
2021/09/21 13:49:01;;;;;;;14.35;10.18;;;;;;;;;;4978948;28;20031;-59
2021/09/21 13:51:27;;;;;;;18.90;10.15;;;;;;;;;;4987456;28;20027;-59
2021/09/21 13:53:52;;;;;;;16.55;9.48;;;;;;;;;;4987172;28;20486;-59
2021/09/21 13:56:18;;;;;;;15.35;9.73;;;;;;;;;;4995524;28;20122;-58
2021/09/21 13:58:43;;;;;;;14.10;9.43;;;;;;;;;;5014938;28;20124;-58
2021/09/21 14:01:09;;;;;;;15.77;9.30;;;;;;;;;;4983051;28;20065;-59
2021/09/21 14:03:34;;;;;;;12.38;8.95;;;;;;;;;;4986950;28;20026;-59
2021/09/21 14:06:01;;;;;;;17.42;10.30;;;;;;;;;;4989560;28;20084;-59
2021/09/21 14:08:26;;;;;;;14.40;9.77;;;;;;;;;;5008778;28;20063;-59
2021/09/21 14:10:52;;;;;;;16.98;10.48;;;;;;;;;;5004598;28;20573;-59
2021/09/21 14:13:17;;;;;;;16.58;9.68;;;;;;;;;;4990831;28;20443;-59
2021/09/21 14:15:43;;;;;;;14.45;9.77;;;;;;;;;;4991365;28;20517;-59
2021/09/21 14:18:12;;;;;;;13.30;9.25;;;;;;;;;;5048322;28;20085;-59
2021/09/21 14:20:37;;;;;;;13.63;9.30;;;;;;;;;;5021981;28;20116;-59
2021/09/21 14:23:03;;;;;;;13.48;9.55;;;;;;;;;;5047714;28;20148;-59
2021/09/21 14:25:28;;;;;;;15.38;9.85;;;;;;;;;;5043262;28;20084;-59
2021/09/21 14:27:55;;;;;;;14.18;9.80;;;;;;;;;;4997158;28;20366;-59
2021/09/21 14:30:22;;;;;;;16.33;10.05;;;;;;;;;;4994106;28;20485;-59